sensor_id;sensor_type;location;lat;lon;timestamp;P1;durP1;ratioP1;P2;durP2;ratioP2
22786;SDS011;63134;52.020;4.714;2023-09-19T00:00:23;4.07;;;1.65;;
22786;SDS011;63134;52.020;4.714;2023-09-19T00:03:12;5.05;;;1.60;;
22786;SDS011;63134;52.020;4.714;2023-09-19T00:05:59;4.60;;;1.73;;
22786;SDS011;63134;52.020;4.714;2023-09-19T00:08:44;3.72;;;1.75;;
22786;SDS011;63134;52.020;4.714;2023-09-19T00:11:30;2.92;;;1.60;;
22786;SDS011;63134;52.020;4.714;2023-09-19T00:14:15;5.13;;;2.08;;
22786;SDS011;63134;52.020;4.714;2023-09-19T00:17:03;6.40;;;2.22;;
22786;SDS011;63134;52.020;4.714;2023-09-19T00:19:53;4.25;;;1.73;;
22786;SDS011;63134;52.020;4.714;2023-09-19T00:22:39;7.35;;;2.15;;
22786;SDS011;63134;52.020;4.714;2023-09-19T00:25:26;6.65;;;2.42;;
22786;SDS011;63134;52.020;4.714;2023-09-19T00:28:13;5.15;;;2.40;;
22786;SDS011;63134;52.020;4.714;2023-09-19T00:31:02;9.05;;;2.28;;
22786;SDS011;63134;52.020;4.714;2023-09-19T00:33:49;6.55;;;2.25;;
22786;SDS011;63134;52.020;4.714;2023-09-19T00:36:34;7.63;;;2.55;;
22786;SDS011;63134;52.020;4.714;2023-09-19T00:39:20;9.23;;;2.58;;
22786;SDS011;63134;52.020;4.714;2023-09-19T00:42:07;9.02;;;2.13;;
22786;SDS011;63134;52.020;4.714;2023-09-19T00:44:53;6.00;;;2.45;;
22786;SDS011;63134;52.020;4.714;2023-09-19T00:47:39;5.38;;;1.75;;
22786;SDS011;63134;52.020;4.714;2023-09-19T00:50:35;5.60;;;1.88;;
22786;SDS011;63134;52.020;4.714;2023-09-19T00:53:21;6.90;;;2.65;;
22786;SDS011;63134;52.020;4.714;2023-09-19T00:56:11;4.28;;;1.75;;
22786;SDS011;63134;52.020;4.714;2023-09-19T00:59:06;5.10;;;2.13;;
22786;SDS011;63134;52.020;4.714;2023-09-19T01:01:52;7.72;;;2.40;;
22786;SDS011;63134;52.020;4.714;2023-09-19T01:04:40;4.13;;;1.90;;
22786;SDS011;63134;52.020;4.714;2023-09-19T01:07:28;5.45;;;2.40;;
22786;SDS011;63134;52.020;4.714;2023-09-19T01:10:19;7.70;;;2.28;;
22786;SDS011;63134;52.020;4.714;2023-09-19T01:16:13;6.78;;;2.22;;
22786;SDS011;63134;52.020;4.714;2023-09-19T01:22:13;8.93;;;3.10;;
22786;SDS011;63134;52.020;4.714;2023-09-19T01:25:28;8.43;;;2.55;;
22786;SDS011;63134;52.020;4.714;2023-09-19T01:28:31;11.38;;;3.28;;
22786;SDS011;63134;52.020;4.714;2023-09-19T01:31:25;10.52;;;3.50;;
22786;SDS011;63134;52.020;4.714;2023-09-19T01:34:16;7.50;;;2.28;;
22786;SDS011;63134;52.020;4.714;2023-09-19T01:37:03;9.57;;;2.78;;
22786;SDS011;63134;52.020;4.714;2023-09-19T01:39:51;10.82;;;3.33;;
22786;SDS011;63134;52.020;4.714;2023-09-19T01:51:46;8.30;;;2.90;;
22786;SDS011;63134;52.020;4.714;2023-09-19T01:54:50;14.27;;;3.95;;
22786;SDS011;63134;52.020;4.714;2023-09-19T02:01:12;7.43;;;2.60;;
22786;SDS011;63134;52.020;4.714;2023-09-19T02:04:07;11.35;;;3.63;;
22786;SDS011;63134;52.020;4.714;2023-09-19T02:06:52;11.60;;;3.20;;
22786;SDS011;63134;52.020;4.714;2023-09-19T02:09:39;11.68;;;3.28;;
22786;SDS011;63134;52.020;4.714;2023-09-19T02:12:26;10.35;;;2.88;;
22786;SDS011;63134;52.020;4.714;2023-09-19T02:15:12;10.90;;;3.05;;
22786;SDS011;63134;52.020;4.714;2023-09-19T02:18:01;12.45;;;3.20;;
22786;SDS011;63134;52.020;4.714;2023-09-19T02:20:47;6.65;;;2.80;;
22786;SDS011;63134;52.020;4.714;2023-09-19T02:23:33;10.85;;;3.17;;
22786;SDS011;63134;52.020;4.714;2023-09-19T02:26:22;16.58;;;3.45;;
22786;SDS011;63134;52.020;4.714;2023-09-19T02:29:08;10.02;;;2.85;;
22786;SDS011;63134;52.020;4.714;2023-09-19T02:32:00;13.75;;;3.38;;
22786;SDS011;63134;52.020;4.714;2023-09-19T02:34:47;10.57;;;2.50;;
22786;SDS011;63134;52.020;4.714;2023-09-19T02:37:32;9.27;;;2.72;;
22786;SDS011;63134;52.020;4.714;2023-09-19T02:40:17;10.82;;;2.80;;
22786;SDS011;63134;52.020;4.714;2023-09-19T02:43:05;8.00;;;2.63;;
22786;SDS011;63134;52.020;4.714;2023-09-19T02:45:50;7.85;;;2.38;;
22786;SDS011;63134;52.020;4.714;2023-09-19T02:48:38;9.45;;;2.58;;
22786;SDS011;63134;52.020;4.714;2023-09-19T02:51:24;9.13;;;2.78;;
22786;SDS011;63134;52.020;4.714;2023-09-19T02:54:09;11.50;;;2.75;;
22786;SDS011;63134;52.020;4.714;2023-09-19T02:56:56;8.63;;;2.70;;
22786;SDS011;63134;52.020;4.714;2023-09-19T02:59:44;11.00;;;2.40;;
22786;SDS011;63134;52.020;4.714;2023-09-19T03:02:29;9.85;;;3.28;;
22786;SDS011;63134;52.020;4.714;2023-09-19T03:05:20;10.27;;;2.60;;
22786;SDS011;63134;52.020;4.714;2023-09-19T03:08:09;12.15;;;3.00;;
22786;SDS011;63134;52.020;4.714;2023-09-19T03:10:55;8.75;;;2.75;;
22786;SDS011;63134;52.020;4.714;2023-09-19T03:13:41;12.88;;;3.03;;
22786;SDS011;63134;52.020;4.714;2023-09-19T03:16:28;9.63;;;2.58;;
22786;SDS011;63134;52.020;4.714;2023-09-19T03:19:17;11.45;;;3.30;;
22786;SDS011;63134;52.020;4.714;2023-09-19T03:22:06;9.63;;;2.35;;
22786;SDS011;63134;52.020;4.714;2023-09-19T03:24:53;9.60;;;2.58;;
22786;SDS011;63134;52.020;4.714;2023-09-19T03:27:39;8.05;;;2.75;;
22786;SDS011;63134;52.020;4.714;2023-09-19T03:30:25;10.57;;;3.28;;
22786;SDS011;63134;52.020;4.714;2023-09-19T03:33:11;10.38;;;2.92;;
22786;SDS011;63134;52.020;4.714;2023-09-19T03:35:58;16.27;;;3.10;;
22786;SDS011;63134;52.020;4.714;2023-09-19T03:38:46;7.97;;;2.88;;
22786;SDS011;63134;52.020;4.714;2023-09-19T03:41:32;11.55;;;3.35;;
22786;SDS011;63134;52.020;4.714;2023-09-19T03:44:21;9.40;;;2.53;;
22786;SDS011;63134;52.020;4.714;2023-09-19T03:47:09;13.02;;;3.17;;
22786;SDS011;63134;52.020;4.714;2023-09-19T03:49:55;16.85;;;4.38;;
22786;SDS011;63134;52.020;4.714;2023-09-19T03:52:41;10.35;;;2.95;;
22786;SDS011;63134;52.020;4.714;2023-09-19T03:55:29;10.30;;;2.90;;
22786;SDS011;63134;52.020;4.714;2023-09-19T03:58:15;11.20;;;3.20;;
22786;SDS011;63134;52.020;4.714;2023-09-19T04:01:01;10.00;;;2.78;;
22786;SDS011;63134;52.020;4.714;2023-09-19T04:03:47;8.48;;;2.97;;
22786;SDS011;63134;52.020;4.714;2023-09-19T04:06:36;10.90;;;3.05;;
22786;SDS011;63134;52.020;4.714;2023-09-19T04:09:22;10.23;;;3.17;;
22786;SDS011;63134;52.020;4.714;2023-09-19T04:12:08;8.65;;;2.72;;
22786;SDS011;63134;52.020;4.714;2023-09-19T04:14:54;10.15;;;3.08;;
22786;SDS011;63134;52.020;4.714;2023-09-19T04:17:40;11.35;;;2.78;;
22786;SDS011;63134;52.020;4.714;2023-09-19T04:20:26;12.32;;;2.60;;
22786;SDS011;63134;52.020;4.714;2023-09-19T04:23:12;12.25;;;3.40;;
22786;SDS011;63134;52.020;4.714;2023-09-19T04:25:58;9.30;;;3.00;;
22786;SDS011;63134;52.020;4.714;2023-09-19T04:28:44;13.35;;;3.33;;
22786;SDS011;63134;52.020;4.714;2023-09-19T04:31:31;13.10;;;2.90;;
22786;SDS011;63134;52.020;4.714;2023-09-19T04:34:16;9.35;;;2.83;;
22786;SDS011;63134;52.020;4.714;2023-09-19T04:37:02;10.95;;;3.10;;
22786;SDS011;63134;52.020;4.714;2023-09-19T04:39:48;9.63;;;3.20;;
22786;SDS011;63134;52.020;4.714;2023-09-19T04:42:35;9.65;;;2.80;;
22786;SDS011;63134;52.020;4.714;2023-09-19T04:45:25;14.60;;;3.75;;
22786;SDS011;63134;52.020;4.714;2023-09-19T04:48:11;13.82;;;3.50;;
22786;SDS011;63134;52.020;4.714;2023-09-19T04:50:57;10.38;;;3.47;;
22786;SDS011;63134;52.020;4.714;2023-09-19T04:53:44;15.57;;;3.55;;
22786;SDS011;63134;52.020;4.714;2023-09-19T04:56:30;11.70;;;3.22;;
22786;SDS011;63134;52.020;4.714;2023-09-19T04:59:17;13.68;;;3.60;;
22786;SDS011;63134;52.020;4.714;2023-09-19T05:02:02;10.57;;;3.17;;
22786;SDS011;63134;52.020;4.714;2023-09-19T05:04:49;15.43;;;3.30;;
22786;SDS011;63134;52.020;4.714;2023-09-19T05:07:35;11.48;;;2.88;;
22786;SDS011;63134;52.020;4.714;2023-09-19T05:10:21;10.13;;;3.22;;
22786;SDS011;63134;52.020;4.714;2023-09-19T05:13:07;14.82;;;3.30;;
22786;SDS011;63134;52.020;4.714;2023-09-19T05:15:52;14.88;;;3.10;;
22786;SDS011;63134;52.020;4.714;2023-09-19T05:18:38;10.32;;;3.25;;
22786;SDS011;63134;52.020;4.714;2023-09-19T05:21:23;14.52;;;3.50;;
22786;SDS011;63134;52.020;4.714;2023-09-19T05:24:09;12.02;;;3.08;;
22786;SDS011;63134;52.020;4.714;2023-09-19T05:26:55;12.25;;;2.92;;
22786;SDS011;63134;52.020;4.714;2023-09-19T05:29:44;10.05;;;3.15;;
22786;SDS011;63134;52.020;4.714;2023-09-19T05:32:30;13.35;;;3.13;;
22786;SDS011;63134;52.020;4.714;2023-09-19T05:35:15;10.95;;;3.70;;
22786;SDS011;63134;52.020;4.714;2023-09-19T05:38:01;12.57;;;3.33;;
22786;SDS011;63134;52.020;4.714;2023-09-19T05:40:46;9.43;;;2.97;;
22786;SDS011;63134;52.020;4.714;2023-09-19T05:43:32;10.15;;;3.13;;
22786;SDS011;63134;52.020;4.714;2023-09-19T05:46:18;11.00;;;3.03;;
22786;SDS011;63134;52.020;4.714;2023-09-19T05:49:04;10.90;;;3.05;;
22786;SDS011;63134;52.020;4.714;2023-09-19T05:51:50;12.38;;;4.00;;
22786;SDS011;63134;52.020;4.714;2023-09-19T05:54:39;8.75;;;3.50;;
22786;SDS011;63134;52.020;4.714;2023-09-19T05:57:24;17.52;;;4.38;;
22786;SDS011;63134;52.020;4.714;2023-09-19T06:00:10;11.25;;;3.35;;
22786;SDS011;63134;52.020;4.714;2023-09-19T06:02:57;20.42;;;3.90;;
22786;SDS011;63134;52.020;4.714;2023-09-19T06:05:43;16.63;;;3.85;;
22786;SDS011;63134;52.020;4.714;2023-09-19T06:08:31;15.32;;;4.40;;
22786;SDS011;63134;52.020;4.714;2023-09-19T06:11:18;13.60;;;3.53;;
22786;SDS011;63134;52.020;4.714;2023-09-19T06:14:05;19.92;;;3.70;;
22786;SDS011;63134;52.020;4.714;2023-09-19T06:16:51;11.50;;;3.05;;
22786;SDS011;63134;52.020;4.714;2023-09-19T06:19:39;19.58;;;4.38;;
22786;SDS011;63134;52.020;4.714;2023-09-19T06:22:26;13.32;;;3.65;;
22786;SDS011;63134;52.020;4.714;2023-09-19T06:25:13;13.43;;;3.72;;
22786;SDS011;63134;52.020;4.714;2023-09-19T06:28:06;13.02;;;3.60;;
22786;SDS011;63134;52.020;4.714;2023-09-19T06:30:56;14.73;;;4.10;;
22786;SDS011;63134;52.020;4.714;2023-09-19T06:33:42;13.63;;;3.58;;
22786;SDS011;63134;52.020;4.714;2023-09-19T06:36:28;13.20;;;3.40;;
22786;SDS011;63134;52.020;4.714;2023-09-19T06:39:14;10.73;;;3.38;;
22786;SDS011;63134;52.020;4.714;2023-09-19T06:42:00;14.20;;;3.70;;
22786;SDS011;63134;52.020;4.714;2023-09-19T06:44:46;14.40;;;4.10;;
22786;SDS011;63134;52.020;4.714;2023-09-19T06:47:32;17.05;;;3.67;;
22786;SDS011;63134;52.020;4.714;2023-09-19T06:50:18;16.10;;;4.07;;
22786;SDS011;63134;52.020;4.714;2023-09-19T06:53:05;8.85;;;3.25;;
22786;SDS011;63134;52.020;4.714;2023-09-19T06:55:53;11.15;;;3.50;;
22786;SDS011;63134;52.020;4.714;2023-09-19T06:58:42;16.15;;;3.60;;
22786;SDS011;63134;52.020;4.714;2023-09-19T07:01:29;19.38;;;4.10;;
22786;SDS011;63134;52.020;4.714;2023-09-19T07:04:17;14.20;;;4.57;;
22786;SDS011;63134;52.020;4.714;2023-09-19T07:07:04;13.45;;;2.97;;
22786;SDS011;63134;52.020;4.714;2023-09-19T07:09:50;12.05;;;3.67;;
22786;SDS011;63134;52.020;4.714;2023-09-19T07:12:36;17.65;;;3.70;;
22786;SDS011;63134;52.020;4.714;2023-09-19T07:15:21;11.75;;;4.00;;
22786;SDS011;63134;52.020;4.714;2023-09-19T07:18:08;15.95;;;4.60;;
22786;SDS011;63134;52.020;4.714;2023-09-19T07:20:57;16.90;;;4.15;;
22786;SDS011;63134;52.020;4.714;2023-09-19T07:23:53;14.93;;;4.68;;
22786;SDS011;63134;52.020;4.714;2023-09-19T07:26:38;10.30;;;3.22;;
22786;SDS011;63134;52.020;4.714;2023-09-19T07:29:30;15.60;;;4.00;;
22786;SDS011;63134;52.020;4.714;2023-09-19T07:32:16;17.83;;;4.10;;
22786;SDS011;63134;52.020;4.714;2023-09-19T07:35:02;13.38;;;4.00;;
22786;SDS011;63134;52.020;4.714;2023-09-19T07:37:56;15.18;;;3.78;;
22786;SDS011;63134;52.020;4.714;2023-09-19T07:40:43;15.20;;;4.28;;
22786;SDS011;63134;52.020;4.714;2023-09-19T07:43:29;15.85;;;3.70;;
22786;SDS011;63134;52.020;4.714;2023-09-19T07:46:15;14.65;;;3.53;;
22786;SDS011;63134;52.020;4.714;2023-09-19T07:49:01;16.48;;;4.13;;
22786;SDS011;63134;52.020;4.714;2023-09-19T07:51:47;16.17;;;4.18;;
22786;SDS011;63134;52.020;4.714;2023-09-19T07:54:37;14.85;;;3.78;;
22786;SDS011;63134;52.020;4.714;2023-09-19T07:57:23;17.65;;;5.13;;
22786;SDS011;63134;52.020;4.714;2023-09-19T08:00:10;15.82;;;3.92;;
22786;SDS011;63134;52.020;4.714;2023-09-19T08:02:56;15.80;;;3.42;;
22786;SDS011;63134;52.020;4.714;2023-09-19T08:05:48;14.48;;;3.72;;
22786;SDS011;63134;52.020;4.714;2023-09-19T08:08:34;12.57;;;4.10;;
22786;SDS011;63134;52.020;4.714;2023-09-19T08:11:22;14.65;;;4.20;;
22786;SDS011;63134;52.020;4.714;2023-09-19T08:14:09;13.82;;;3.75;;
22786;SDS011;63134;52.020;4.714;2023-09-19T08:16:59;17.13;;;4.53;;
22786;SDS011;63134;52.020;4.714;2023-09-19T08:19:45;19.52;;;4.22;;
22786;SDS011;63134;52.020;4.714;2023-09-19T08:22:31;14.20;;;4.00;;
22786;SDS011;63134;52.020;4.714;2023-09-19T08:25:18;15.82;;;4.10;;
22786;SDS011;63134;52.020;4.714;2023-09-19T08:28:04;10.50;;;3.53;;
22786;SDS011;63134;52.020;4.714;2023-09-19T08:30:53;14.82;;;3.58;;
22786;SDS011;63134;52.020;4.714;2023-09-19T08:33:40;13.93;;;4.25;;
22786;SDS011;63134;52.020;4.714;2023-09-19T08:36:26;16.20;;;4.28;;
22786;SDS011;63134;52.020;4.714;2023-09-19T08:39:15;14.75;;;3.45;;
22786;SDS011;63134;52.020;4.714;2023-09-19T08:42:04;15.13;;;3.97;;
22786;SDS011;63134;52.020;4.714;2023-09-19T08:44:50;10.90;;;3.67;;
22786;SDS011;63134;52.020;4.714;2023-09-19T08:47:46;17.48;;;3.92;;
22786;SDS011;63134;52.020;4.714;2023-09-19T08:56:51;16.25;;;4.13;;
22786;SDS011;63134;52.020;4.714;2023-09-19T08:59:39;13.63;;;4.10;;
22786;SDS011;63134;52.020;4.714;2023-09-19T09:02:28;12.30;;;4.20;;
22786;SDS011;63134;52.020;4.714;2023-09-19T09:05:14;18.98;;;4.15;;
22786;SDS011;63134;52.020;4.714;2023-09-19T09:08:03;14.30;;;4.22;;
22786;SDS011;63134;52.020;4.714;2023-09-19T09:10:53;11.48;;;3.97;;
22786;SDS011;63134;52.020;4.714;2023-09-19T09:13:39;17.70;;;4.55;;
22786;SDS011;63134;52.020;4.714;2023-09-19T09:16:26;13.07;;;4.25;;
22786;SDS011;63134;52.020;4.714;2023-09-19T09:19:14;14.32;;;4.13;;
22786;SDS011;63134;52.020;4.714;2023-09-19T09:22:10;15.93;;;3.65;;
22786;SDS011;63134;52.020;4.714;2023-09-19T09:24:57;19.67;;;4.50;;
22786;SDS011;63134;52.020;4.714;2023-09-19T09:28:01;10.80;;;3.42;;
22786;SDS011;63134;52.020;4.714;2023-09-19T09:30:47;14.70;;;4.40;;
22786;SDS011;63134;52.020;4.714;2023-09-19T09:33:33;17.70;;;4.32;;
22786;SDS011;63134;52.020;4.714;2023-09-19T09:36:32;16.50;;;4.07;;
22786;SDS011;63134;52.020;4.714;2023-09-19T09:39:31;15.60;;;3.65;;
22786;SDS011;63134;52.020;4.714;2023-09-19T09:42:33;16.40;;;4.40;;
22786;SDS011;63134;52.020;4.714;2023-09-19T09:45:21;13.15;;;3.65;;
22786;SDS011;63134;52.020;4.714;2023-09-19T09:48:24;11.32;;;3.08;;
22786;SDS011;63134;52.020;4.714;2023-09-19T09:51:28;15.70;;;3.72;;
22786;SDS011;63134;52.020;4.714;2023-09-19T09:54:16;11.88;;;3.35;;
22786;SDS011;63134;52.020;4.714;2023-09-19T09:57:04;10.23;;;3.47;;
22786;SDS011;63134;52.020;4.714;2023-09-19T10:00:05;13.50;;;3.53;;
22786;SDS011;63134;52.020;4.714;2023-09-19T10:02:57;15.02;;;3.10;;
22786;SDS011;63134;52.020;4.714;2023-09-19T10:05:43;12.30;;;3.10;;
22786;SDS011;63134;52.020;4.714;2023-09-19T10:08:39;17.60;;;3.05;;
22786;SDS011;63134;52.020;4.714;2023-09-19T10:11:28;15.40;;;3.83;;
22786;SDS011;63134;52.020;4.714;2023-09-19T10:14:15;8.95;;;3.03;;
22786;SDS011;63134;52.020;4.714;2023-09-19T10:17:01;9.80;;;2.70;;
22786;SDS011;63134;52.020;4.714;2023-09-19T10:19:54;8.27;;;2.60;;
22786;SDS011;63134;52.020;4.714;2023-09-19T10:22:42;11.05;;;2.83;;
22786;SDS011;63134;52.020;4.714;2023-09-19T10:25:31;7.15;;;2.92;;
22786;SDS011;63134;52.020;4.714;2023-09-19T10:28:17;10.20;;;2.63;;
22786;SDS011;63134;52.020;4.714;2023-09-19T10:31:07;14.05;;;2.95;;
22786;SDS011;63134;52.020;4.714;2023-09-19T10:33:55;9.55;;;3.05;;
22786;SDS011;63134;52.020;4.714;2023-09-19T10:36:44;12.25;;;2.97;;
22786;SDS011;63134;52.020;4.714;2023-09-19T10:39:31;7.97;;;2.72;;
22786;SDS011;63134;52.020;4.714;2023-09-19T10:42:18;10.30;;;2.72;;
22786;SDS011;63134;52.020;4.714;2023-09-19T10:45:06;7.13;;;2.28;;
22786;SDS011;63134;52.020;4.714;2023-09-19T10:47:58;10.50;;;2.60;;
22786;SDS011;63134;52.020;4.714;2023-09-19T10:50:57;10.82;;;2.60;;
22786;SDS011;63134;52.020;4.714;2023-09-19T10:53:52;7.20;;;2.00;;
22786;SDS011;63134;52.020;4.714;2023-09-19T10:56:49;9.80;;;2.50;;
22786;SDS011;63134;52.020;4.714;2023-09-19T10:59:36;8.65;;;2.25;;
22786;SDS011;63134;52.020;4.714;2023-09-19T11:02:24;10.88;;;2.80;;
22786;SDS011;63134;52.020;4.714;2023-09-19T11:05:11;9.50;;;2.75;;
22786;SDS011;63134;52.020;4.714;2023-09-19T11:07:58;11.32;;;2.75;;
22786;SDS011;63134;52.020;4.714;2023-09-19T11:10:50;9.48;;;2.63;;
22786;SDS011;63134;52.020;4.714;2023-09-19T11:13:36;11.55;;;2.30;;
22786;SDS011;63134;52.020;4.714;2023-09-19T11:16:22;7.60;;;2.22;;
22786;SDS011;63134;52.020;4.714;2023-09-19T11:19:12;8.63;;;2.00;;
22786;SDS011;63134;52.020;4.714;2023-09-19T11:21:58;6.88;;;2.10;;
22786;SDS011;63134;52.020;4.714;2023-09-19T11:24:44;9.95;;;2.47;;
22786;SDS011;63134;52.020;4.714;2023-09-19T11:27:30;9.15;;;2.90;;
22786;SDS011;63134;52.020;4.714;2023-09-19T11:30:25;11.48;;;2.78;;
22786;SDS011;63134;52.020;4.714;2023-09-19T11:33:15;6.20;;;2.30;;
22786;SDS011;63134;52.020;4.714;2023-09-19T11:36:18;4.63;;;1.73;;
22786;SDS011;63134;52.020;4.714;2023-09-19T11:39:24;8.73;;;2.28;;
22786;SDS011;63134;52.020;4.714;2023-09-19T11:48:35;8.40;;;2.22;;
22786;SDS011;63134;52.020;4.714;2023-09-19T11:51:24;11.30;;;2.40;;
22786;SDS011;63134;52.020;4.714;2023-09-19T11:54:13;10.13;;;2.15;;
22786;SDS011;63134;52.020;4.714;2023-09-19T11:57:03;5.20;;;2.30;;
22786;SDS011;63134;52.020;4.714;2023-09-19T11:59:49;10.25;;;2.45;;
22786;SDS011;63134;52.020;4.714;2023-09-19T12:02:42;8.45;;;2.17;;
22786;SDS011;63134;52.020;4.714;2023-09-19T12:05:32;7.95;;;2.17;;
22786;SDS011;63134;52.020;4.714;2023-09-19T12:08:22;6.32;;;1.80;;
22786;SDS011;63134;52.020;4.714;2023-09-19T12:11:11;5.03;;;1.42;;
22786;SDS011;63134;52.020;4.714;2023-09-19T12:14:03;14.80;;;1.90;;
22786;SDS011;63134;52.020;4.714;2023-09-19T12:16:53;9.77;;;2.13;;
22786;SDS011;63134;52.020;4.714;2023-09-19T12:19:49;6.57;;;1.88;;
22786;SDS011;63134;52.020;4.714;2023-09-19T12:22:41;4.75;;;1.75;;
22786;SDS011;63134;52.020;4.714;2023-09-19T12:25:41;6.15;;;2.05;;
22786;SDS011;63134;52.020;4.714;2023-09-19T12:28:37;6.72;;;2.28;;
22786;SDS011;63134;52.020;4.714;2023-09-19T12:31:27;7.20;;;1.70;;
22786;SDS011;63134;52.020;4.714;2023-09-19T12:34:15;8.35;;;1.77;;
22786;SDS011;63134;52.020;4.714;2023-09-19T12:37:08;6.60;;;1.98;;
22786;SDS011;63134;52.020;4.714;2023-09-19T12:40:06;6.65;;;1.63;;
22786;SDS011;63134;52.020;4.714;2023-09-19T12:43:02;6.90;;;1.65;;
22786;SDS011;63134;52.020;4.714;2023-09-19T12:45:48;4.82;;;1.48;;
22786;SDS011;63134;52.020;4.714;2023-09-19T12:48:34;4.95;;;1.65;;
22786;SDS011;63134;52.020;4.714;2023-09-19T12:51:20;8.35;;;1.45;;
22786;SDS011;63134;52.020;4.714;2023-09-19T12:54:09;3.47;;;1.42;;
22786;SDS011;63134;52.020;4.714;2023-09-19T12:56:59;6.90;;;1.65;;
22786;SDS011;63134;52.020;4.714;2023-09-19T12:59:45;5.95;;;2.00;;
22786;SDS011;63134;52.020;4.714;2023-09-19T13:02:31;6.90;;;1.70;;
22786;SDS011;63134;52.020;4.714;2023-09-19T13:05:17;3.35;;;1.63;;
22786;SDS011;63134;52.020;4.714;2023-09-19T13:08:16;6.35;;;1.67;;
22786;SDS011;63134;52.020;4.714;2023-09-19T13:14:17;6.75;;;2.42;;
22786;SDS011;63134;52.020;4.714;2023-09-19T13:17:07;6.32;;;2.30;;
22786;SDS011;63134;52.020;4.714;2023-09-19T13:20:04;9.35;;;1.60;;
22786;SDS011;63134;52.020;4.714;2023-09-19T13:22:52;6.75;;;1.90;;
22786;SDS011;63134;52.020;4.714;2023-09-19T13:25:45;4.88;;;1.60;;
22786;SDS011;63134;52.020;4.714;2023-09-19T13:28:31;7.05;;;1.88;;
22786;SDS011;63134;52.020;4.714;2023-09-19T13:31:18;6.13;;;1.95;;
22786;SDS011;63134;52.020;4.714;2023-09-19T13:34:04;8.38;;;2.10;;
22786;SDS011;63134;52.020;4.714;2023-09-19T13:37:00;6.68;;;1.70;;
22786;SDS011;63134;52.020;4.714;2023-09-19T13:39:46;6.32;;;1.98;;
22786;SDS011;63134;52.020;4.714;2023-09-19T13:42:34;10.00;;;2.28;;
22786;SDS011;63134;52.020;4.714;2023-09-19T13:45:24;3.10;;;1.55;;
22786;SDS011;63134;52.020;4.714;2023-09-19T13:48:12;4.22;;;1.70;;
22786;SDS011;63134;52.020;4.714;2023-09-19T13:50:58;5.18;;;1.90;;
22786;SDS011;63134;52.020;4.714;2023-09-19T13:53:43;9.05;;;2.22;;
22786;SDS011;63134;52.020;4.714;2023-09-19T13:56:29;6.78;;;2.00;;
22786;SDS011;63134;52.020;4.714;2023-09-19T13:59:16;9.82;;;2.67;;
22786;SDS011;63134;52.020;4.714;2023-09-19T14:02:02;13.25;;;2.58;;
22786;SDS011;63134;52.020;4.714;2023-09-19T14:04:51;4.32;;;2.08;;
22786;SDS011;63134;52.020;4.714;2023-09-19T14:07:38;7.38;;;2.40;;
22786;SDS011;63134;52.020;4.714;2023-09-19T14:10:26;8.02;;;2.50;;
22786;SDS011;63134;52.020;4.714;2023-09-19T14:13:12;8.18;;;2.85;;
22786;SDS011;63134;52.020;4.714;2023-09-19T14:16:02;7.85;;;2.35;;
22786;SDS011;63134;52.020;4.714;2023-09-19T14:18:49;8.05;;;2.35;;
22786;SDS011;63134;52.020;4.714;2023-09-19T14:21:35;6.68;;;2.40;;
22786;SDS011;63134;52.020;4.714;2023-09-19T14:24:27;8.23;;;2.70;;
22786;SDS011;63134;52.020;4.714;2023-09-19T14:27:13;8.93;;;2.60;;
22786;SDS011;63134;52.020;4.714;2023-09-19T14:29:58;6.60;;;2.88;;
22786;SDS011;63134;52.020;4.714;2023-09-19T14:32:44;12.02;;;2.88;;
22786;SDS011;63134;52.020;4.714;2023-09-19T14:35:30;7.28;;;2.50;;
22786;SDS011;63134;52.020;4.714;2023-09-19T14:38:16;15.27;;;3.33;;
22786;SDS011;63134;52.020;4.714;2023-09-19T14:41:03;8.27;;;2.70;;
22786;SDS011;63134;52.020;4.714;2023-09-19T14:43:52;8.43;;;2.53;;
22786;SDS011;63134;52.020;4.714;2023-09-19T14:46:38;7.20;;;2.47;;
22786;SDS011;63134;52.020;4.714;2023-09-19T14:49:24;11.32;;;2.65;;
22786;SDS011;63134;52.020;4.714;2023-09-19T14:52:12;8.25;;;3.90;;
22786;SDS011;63134;52.020;4.714;2023-09-19T14:55:01;8.13;;;2.42;;
22786;SDS011;63134;52.020;4.714;2023-09-19T14:57:50;9.50;;;2.97;;
22786;SDS011;63134;52.020;4.714;2023-09-19T15:00:36;6.75;;;2.72;;
22786;SDS011;63134;52.020;4.714;2023-09-19T15:03:22;9.80;;;2.53;;
22786;SDS011;63134;52.020;4.714;2023-09-19T15:06:10;8.27;;;2.90;;
22786;SDS011;63134;52.020;4.714;2023-09-19T15:09:03;12.52;;;3.08;;
22786;SDS011;63134;52.020;4.714;2023-09-19T15:11:50;12.55;;;3.45;;
22786;SDS011;63134;52.020;4.714;2023-09-19T15:14:36;8.88;;;2.75;;
22786;SDS011;63134;52.020;4.714;2023-09-19T15:17:22;9.73;;;3.30;;
22786;SDS011;63134;52.020;4.714;2023-09-19T15:20:10;11.10;;;2.95;;
22786;SDS011;63134;52.020;4.714;2023-09-19T15:22:59;11.52;;;3.33;;
22786;SDS011;63134;52.020;4.714;2023-09-19T15:25:49;8.57;;;2.67;;
22786;SDS011;63134;52.020;4.714;2023-09-19T15:28:35;13.98;;;3.28;;
22786;SDS011;63134;52.020;4.714;2023-09-19T15:31:22;9.02;;;3.00;;
22786;SDS011;63134;52.020;4.714;2023-09-19T15:34:11;10.15;;;3.10;;
22786;SDS011;63134;52.020;4.714;2023-09-19T15:36:59;11.52;;;3.25;;
22786;SDS011;63134;52.020;4.714;2023-09-19T15:39:44;9.23;;;2.90;;
22786;SDS011;63134;52.020;4.714;2023-09-19T15:42:31;11.27;;;3.40;;
22786;SDS011;63134;52.020;4.714;2023-09-19T15:45:16;10.02;;;3.15;;
22786;SDS011;63134;52.020;4.714;2023-09-19T15:48:04;8.70;;;2.70;;
22786;SDS011;63134;52.020;4.714;2023-09-19T15:50:49;10.57;;;2.95;;
22786;SDS011;63134;52.020;4.714;2023-09-19T15:53:41;8.43;;;3.22;;
22786;SDS011;63134;52.020;4.714;2023-09-19T15:56:35;11.85;;;3.75;;
22786;SDS011;63134;52.020;4.714;2023-09-19T15:59:20;6.43;;;3.22;;
22786;SDS011;63134;52.020;4.714;2023-09-19T16:02:11;7.63;;;2.75;;
22786;SDS011;63134;52.020;4.714;2023-09-19T16:04:58;13.93;;;3.53;;
22786;SDS011;63134;52.020;4.714;2023-09-19T16:07:43;10.35;;;3.05;;
22786;SDS011;63134;52.020;4.714;2023-09-19T16:10:33;14.23;;;3.75;;
22786;SDS011;63134;52.020;4.714;2023-09-19T16:13:30;12.48;;;3.30;;
22786;SDS011;63134;52.020;4.714;2023-09-19T16:16:17;11.50;;;3.10;;
22786;SDS011;63134;52.020;4.714;2023-09-19T16:19:06;9.18;;;2.97;;
22786;SDS011;63134;52.020;4.714;2023-09-19T16:21:56;6.70;;;3.22;;
22786;SDS011;63134;52.020;4.714;2023-09-19T16:24:41;9.85;;;2.90;;
22786;SDS011;63134;52.020;4.714;2023-09-19T16:27:32;10.30;;;3.08;;
22786;SDS011;63134;52.020;4.714;2023-09-19T16:30:18;9.15;;;3.25;;
22786;SDS011;63134;52.020;4.714;2023-09-19T16:33:03;8.43;;;3.20;;
22786;SDS011;63134;52.020;4.714;2023-09-19T16:35:49;12.10;;;3.90;;
22786;SDS011;63134;52.020;4.714;2023-09-19T16:38:35;13.77;;;3.42;;
22786;SDS011;63134;52.020;4.714;2023-09-19T16:41:22;11.07;;;3.40;;
22786;SDS011;63134;52.020;4.714;2023-09-19T16:44:10;10.98;;;3.25;;
22786;SDS011;63134;52.020;4.714;2023-09-19T16:46:59;11.52;;;3.58;;
22786;SDS011;63134;52.020;4.714;2023-09-19T16:49:48;8.95;;;3.30;;
22786;SDS011;63134;52.020;4.714;2023-09-19T16:52:34;9.32;;;3.25;;
22786;SDS011;63134;52.020;4.714;2023-09-19T16:55:20;9.75;;;3.35;;
22786;SDS011;63134;52.020;4.714;2023-09-19T16:58:05;15.80;;;3.55;;
22786;SDS011;63134;52.020;4.714;2023-09-19T17:00:52;15.55;;;3.50;;
22786;SDS011;63134;52.020;4.714;2023-09-19T17:03:37;17.33;;;3.95;;
22786;SDS011;63134;52.020;4.714;2023-09-19T17:06:26;10.98;;;3.65;;
22786;SDS011;63134;52.020;4.714;2023-09-19T17:09:12;17.02;;;3.28;;
22786;SDS011;63134;52.020;4.714;2023-09-19T17:11:59;11.27;;;3.17;;
22786;SDS011;63134;52.020;4.714;2023-09-19T17:14:44;13.40;;;3.42;;
22786;SDS011;63134;52.020;4.714;2023-09-19T17:17:30;10.70;;;3.55;;
22786;SDS011;63134;52.020;4.714;2023-09-19T17:20:16;13.30;;;3.72;;